Time;durP1;ratioP1;P1;durP2;ratioP2;P2;SDS_P1;SDS_P2;PMS_P1;PMS_P2;Temp;Humidity;BMP_temperature;BMP_pressure;BME280_temperature;BME280_humidity;BME280_pressure;Samples;Min_cycle;Max_cycle;Signal;HPM_P1;HPM_P2
2024/02/13 00:00:25;;;;;;;6.78;3.28;;;9.80;99.90;;;;;;10092660;28;20841;-66
2024/02/13 00:05:16;;;;;;;7.43;3.78;;;9.80;99.90;;;;;;10092103;28;20113;-67
2024/02/13 00:10:10;;;;;;;4.00;2.83;;;9.70;99.90;;;;;;10097395;28;20064;-66
2024/02/13 00:15:01;;;;;;;4.57;3.65;;;9.70;99.90;;;;;;10100651;28;20020;-66
2024/02/13 00:19:53;;;;;;;5.43;2.78;;;9.60;99.90;;;;;;10096197;28;20111;-66
2024/02/13 00:24:44;;;;;;;5.65;3.42;;;9.70;99.90;;;;;;10090245;28;20020;-66
2024/02/13 00:29:35;;;;;;;5.53;3.22;;;9.70;99.90;;;;;;10095936;28;20421;-66
2024/02/13 00:34:26;;;;;;;4.78;2.75;;;9.70;99.90;;;;;;10100577;28;20626;-67
2024/02/13 00:39:17;;;;;;;8.07;2.72;;;9.70;99.90;;;;;;10109365;28;20036;-66
2024/02/13 00:44:07;;;;;;;4.68;2.90;;;9.70;99.90;;;;;;10108863;28;20029;-66
2024/02/13 00:48:58;;;;;;;4.88;2.10;;;9.70;99.90;;;;;;10109673;28;20112;-67
2024/02/13 00:53:49;;;;;;;3.88;2.60;;;9.70;99.90;;;;;;10107891;28;20025;-66
2024/02/13 00:58:43;;;;;;;2.50;2.05;;;9.70;99.90;;;;;;10105453;28;20541;-66
2024/02/13 01:03:36;;;;;;;6.30;2.90;;;9.70;99.90;;;;;;10108098;28;20032;-66
2024/02/13 01:08:26;;;;;;;4.93;2.17;;;9.70;99.90;;;;;;10107992;28;20162;-66
2024/02/13 01:13:18;;;;;;;4.78;3.05;;;9.60;99.90;;;;;;10107625;28;20628;-66
2024/02/13 01:18:08;;;;;;;6.45;3.45;;;9.60;99.90;;;;;;10108035;28;20025;-66
2024/02/13 01:22:59;;;;;;;6.38;2.55;;;9.60;99.90;;;;;;10107305;28;20021;-66
2024/02/13 01:27:50;;;;;;;6.80;2.53;;;9.60;99.90;;;;;;10111729;28;20076;-67
2024/02/13 01:32:40;;;;;;;3.78;2.35;;;9.60;99.90;;;;;;10107829;28;20526;-66
2024/02/13 01:37:31;;;;;;;5.85;2.35;;;9.60;99.90;;;;;;10108003;28;20390;-66
2024/02/13 01:42:23;;;;;;;7.55;3.08;;;9.60;99.90;;;;;;10091055;28;20028;-66
2024/02/13 01:47:13;;;;;;;6.80;2.60;;;9.50;99.90;;;;;;10102279;28;20021;-66
2024/02/13 01:52:05;;;;;;;4.43;2.38;;;9.50;99.90;;;;;;10101687;28;20525;-65
2024/02/13 01:56:56;;;;;;;3.17;2.22;;;9.40;99.90;;;;;;10098855;28;20029;-66
2024/02/13 02:01:47;;;;;;;4.95;1.83;;;9.40;99.90;;;;;;10100972;28;20029;-67
2024/02/13 02:06:41;;;;;;;5.35;2.50;;;9.40;99.90;;;;;;10082253;28;20036;-66
2024/02/13 02:11:32;;;;;;;5.50;2.38;;;9.40;99.90;;;;;;10105484;28;20040;-66
2024/02/13 02:16:23;;;;;;;4.22;1.65;;;9.40;99.90;;;;;;10100271;28;20092;-66
2024/02/13 02:21:17;;;;;;;4.10;2.00;;;9.50;99.90;;;;;;10100463;28;20032;-66
2024/02/13 02:26:07;;;;;;;1.95;1.52;;;9.50;99.90;;;;;;10099662;28;20069;-66
2024/02/13 02:30:58;;;;;;;3.20;1.80;;;9.40;99.90;;;;;;10100578;28;20094;-67
2024/02/13 02:35:49;;;;;;;2.50;1.95;;;9.40;99.90;;;;;;10099796;28;20017;-66
2024/02/13 02:40:39;;;;;;;5.65;1.77;;;9.40;99.90;;;;;;10074238;28;20043;-66
2024/02/13 02:45:30;;;;;;;4.38;2.13;;;9.50;99.90;;;;;;10093417;28;20391;-66
2024/02/13 02:50:22;;;;;;;4.03;2.00;;;9.40;99.90;;;;;;10094207;28;20041;-66
2024/02/13 02:55:12;;;;;;;6.40;2.00;;;9.30;99.90;;;;;;10097732;28;20029;-66
2024/02/13 03:00:09;;;;;;;2.50;1.48;;;9.30;99.90;;;;;;10098453;28;20047;-67
2024/02/13 03:05:03;;;;;;;3.85;1.75;;;9.30;99.90;;;;;;10101369;28;20033;-67
2024/02/13 03:09:53;;;;;;;4.50;1.67;;;9.30;99.90;;;;;;10098129;28;20037;-66
2024/02/13 03:14:44;;;;;;;4.47;2.33;;;9.30;99.90;;;;;;10097447;28;20041;-66
2024/02/13 03:19:35;;;;;;;3.70;1.45;;;9.20;99.90;;;;;;10103488;28;20754;-66
2024/02/13 03:24:26;;;;;;;4.25;1.60;;;9.30;99.90;;;;;;10079987;28;20402;-66
2024/02/13 03:29:16;;;;;;;3.53;2.05;;;9.30;99.90;;;;;;10098018;28;20049;-66
2024/02/13 03:34:08;;;;;;;3.38;1.58;;;9.30;99.90;;;;;;10098520;28;20088;-66
2024/02/13 03:38:59;;;;;;;5.75;1.88;;;9.30;99.90;;;;;;10097904;28;20021;-66
2024/02/13 03:43:50;;;;;;;1.77;1.13;;;9.30;99.90;;;;;;10094157;28;20040;-66
2024/02/13 03:48:41;;;;;;;4.47;1.75;;;9.30;99.90;;;;;;10094209;28;20395;-66
2024/02/13 03:53:33;;;;;;;3.72;1.70;;;9.20;99.90;;;;;;10095824;28;20139;-66
2024/02/13 03:58:24;;;;;;;4.32;1.50;;;9.20;99.90;;;;;;10096793;28;20070;-66
2024/02/13 04:03:15;;;;;;;2.20;1.85;;;9.10;99.90;;;;;;10078180;28;20304;-66
2024/02/13 04:08:09;;;;;;;4.22;1.80;;;9.20;99.90;;;;;;10093047;28;20068;-67
2024/02/13 04:12:59;;;;;;;2.75;1.45;;;9.20;99.90;;;;;;10090303;28;20043;-66
2024/02/13 04:17:50;;;;;;;3.03;1.30;;;9.20;99.90;;;;;;10090808;28;20031;-66
2024/02/13 04:22:42;;;;;;;2.15;1.27;;;9.30;99.90;;;;;;10095642;28;20032;-66
2024/02/13 04:27:33;;;;;;;5.55;1.75;;;9.30;99.90;;;;;;10092947;28;20037;-67
2024/02/13 04:32:23;;;;;;;3.83;1.77;;;9.20;99.90;;;;;;10061933;28;20052;-66
2024/02/13 04:37:14;;;;;;;3.08;1.35;;;9.10;99.90;;;;;;10095279;28;20017;-66
2024/02/13 04:42:05;;;;;;;3.17;1.77;;;9.10;99.90;;;;;;10094905;28;20091;-67
2024/02/13 04:46:56;;;;;;;2.35;1.80;;;9.10;99.90;;;;;;10095159;28;20024;-66
2024/02/13 04:51:47;;;;;;;1.80;1.00;;;9.10;99.90;;;;;;10095452;28;20526;-66
2024/02/13 04:56:37;;;;;;;3.88;2.33;;;9.10;99.90;;;;;;10095866;28;20533;-66
2024/02/13 05:01:29;;;;;;;2.30;1.02;;;9.10;99.90;;;;;;10095129;28;20103;-66
2024/02/13 05:11:29;;;;;;;2.47;1.33;;;9.00;99.90;;;;;;10092081;28;20442;-66
2024/02/13 05:16:20;;;;;;;7.55;1.73;;;9.00;99.90;;;;;;10095583;28;20028;-66
2024/02/13 05:21:13;;;;;;;2.28;1.42;;;9.00;99.90;;;;;;10096789;28;20025;-66
2024/02/13 05:26:07;;;;;;;3.63;1.17;;;9.00;99.90;;;;;;10101727;28;20140;-67
2024/02/13 05:30:58;;;;;;;1.65;0.98;;;8.90;99.90;;;;;;10101029;28;20052;-67
2024/02/13 05:35:49;;;;;;;3.40;0.95;;;9.00;99.90;;;;;;10096537;28;20086;-67
2024/02/13 05:40:42;;;;;;;2.60;1.40;;;9.00;99.90;;;;;;10091182;28;20593;-67
2024/02/13 05:45:33;;;;;;;3.15;1.38;;;8.90;99.90;;;;;;10102061;28;20041;-67
2024/02/13 05:50:23;;;;;;;3.35;1.63;;;8.90;99.90;;;;;;10098337;28;20041;-67
2024/02/13 05:55:14;;;;;;;3.70;2.40;;;8.80;99.90;;;;;;10108031;28;20179;-66
2024/02/13 06:00:09;;;;;;;4.15;2.08;;;8.90;99.90;;;;;;10100857;28;20033;-67
2024/02/13 06:05:00;;;;;;;4.55;2.15;;;8.90;99.90;;;;;;10100343;28;20014;-67
2024/02/13 06:09:50;;;;;;;4.43;1.88;;;8.80;99.90;;;;;;10100102;28;20060;-66
2024/02/13 06:14:42;;;;;;;3.75;2.10;;;8.70;99.90;;;;;;10099565;28;20017;-67
2024/02/13 06:19:33;;;;;;;4.82;2.05;;;8.80;99.90;;;;;;10101092;28;20500;-67
2024/02/13 06:24:24;;;;;;;5.07;1.58;;;8.70;99.90;;;;;;10084949;28;20124;-66
2024/02/13 06:29:15;;;;;;;3.45;2.25;;;8.60;99.90;;;;;;10099463;28;20454;-67
2024/02/13 06:34:06;;;;;;;4.45;2.90;;;8.60;99.90;;;;;;10099633;28;20028;-67
2024/02/13 06:38:57;;;;;;;5.53;2.40;;;8.50;99.90;;;;;;10099652;28;20043;-67
2024/02/13 06:43:47;;;;;;;4.10;2.67;;;8.50;99.90;;;;;;10098731;28;20170;-68
2024/02/13 06:48:41;;;;;;;3.38;2.38;;;8.50;99.90;;;;;;10103143;28;20520;-67
2024/02/13 06:53:32;;;;;;;3.75;2.85;;;8.40;99.90;;;;;;10098794;28;20037;-68
2024/02/13 06:58:22;;;;;;;2.88;1.83;;;8.40;99.90;;;;;;10098448;28;20422;-67
2024/02/13 07:03:13;;;;;;;4.43;2.00;;;8.40;99.90;;;;;;10100593;28;20596;-67
2024/02/13 07:08:04;;;;;;;6.22;2.97;;;8.40;99.90;;;;;;10099192;28;20024;-67
2024/02/13 07:12:56;;;;;;;2.47;1.70;;;8.40;99.90;;;;;;10067542;28;20144;-66
2024/02/13 07:17:48;;;;;;;4.38;2.05;;;8.40;99.90;;;;;;10099030;28;20021;-66
2024/02/13 07:22:39;;;;;;;4.60;2.15;;;8.40;99.90;;;;;;10097605;28;20116;-66
2024/02/13 07:27:30;;;;;;;4.10;2.40;;;8.40;99.90;;;;;;10078998;28;20051;-67
2024/02/13 07:32:22;;;;;;;6.50;2.88;;;8.30;99.90;;;;;;10094703;28;20037;-67
2024/02/13 07:37:13;;;;;;;4.80;2.75;;;8.30;99.90;;;;;;10088024;28;20108;-67
2024/02/13 07:42:04;;;;;;;4.90;2.50;;;8.20;99.90;;;;;;10096232;28;20208;-68
2024/02/13 07:46:57;;;;;;;15.43;3.75;;;8.20;99.90;;;;;;10093980;28;20032;-66
2024/02/13 07:51:48;;;;;;;5.75;3.58;;;8.30;99.90;;;;;;10095046;28;20040;-69
2024/02/13 07:56:41;;;;;;;3.33;2.58;;;8.30;99.90;;;;;;10096144;28;20111;-66
2024/02/13 08:01:31;;;;;;;4.57;2.90;;;8.30;99.90;;;;;;10102593;28;20021;-67
2024/02/13 08:06:22;;;;;;;7.35;3.13;;;8.30;99.90;;;;;;10091666;28;20017;-67
2024/02/13 08:11:13;;;;;;;8.55;2.95;;;8.30;99.90;;;;;;10096617;28;20033;-67
2024/02/13 08:16:04;;;;;;;3.47;2.85;;;8.30;99.90;;;;;;10106289;28;20494;-70
2024/02/13 08:20:55;;;;;;;4.88;2.28;;;8.30;99.90;;;;;;10096728;28;20029;-67
2024/02/13 08:25:47;;;;;;;3.92;2.38;;;8.30;99.90;;;;;;10095061;28;20068;-67
2024/02/13 08:30:38;;;;;;;4.88;2.85;;;8.40;99.90;;;;;;10095526;28;20044;-67
2024/02/13 08:35:28;;;;;;;4.50;2.63;;;8.40;99.90;;;;;;10076913;28;20055;-66
2024/02/13 08:40:19;;;;;;;6.90;3.22;;;8.40;99.90;;;;;;10081936;28;20033;-67
2024/02/13 08:45:10;;;;;;;3.55;2.30;;;8.40;99.90;;;;;;10096394;28;20487;-65
2024/02/13 08:50:02;;;;;;;8.00;3.28;;;8.50;99.90;;;;;;10095483;28;20567;-65
2024/02/13 08:54:52;;;;;;;4.20;2.35;;;8.60;99.90;;;;;;10097441;28;20025;-66
2024/02/13 08:59:45;;;;;;;4.78;2.25;;;8.70;99.90;;;;;;10104372;28;20028;-66
2024/02/13 09:04:36;;;;;;;4.90;3.05;;;8.60;99.90;;;;;;10103052;28;20021;-68
2024/02/13 09:09:26;;;;;;;5.63;2.42;;;8.70;99.90;;;;;;10103247;28;20041;-66
2024/02/13 09:14:18;;;;;;;5.15;3.15;;;8.70;99.90;;;;;;10084600;28;20155;-66
2024/02/13 09:19:08;;;;;;;4.70;2.28;;;8.80;99.90;;;;;;10102281;28;20017;-66
2024/02/13 09:23:59;;;;;;;4.75;2.28;;;8.80;99.90;;;;;;10102051;28;20154;-66
2024/02/13 09:28:50;;;;;;;6.80;2.90;;;8.90;99.90;;;;;;10096995;28;20049;-67
2024/02/13 09:33:41;;;;;;;6.50;2.25;;;9.00;99.90;;;;;;10102299;28;20437;-68
2024/02/13 09:38:32;;;;;;;3.67;2.17;;;9.10;99.90;;;;;;10101426;28;20094;-66
2024/02/13 09:43:22;;;;;;;6.68;2.13;;;9.20;99.90;;;;;;10100821;28;20021;-66
2024/02/13 09:48:20;;;;;;;3.38;1.85;;;9.20;99.90;;;;;;10101951;28;20039;-67
2024/02/13 09:53:18;;;;;;;4.60;2.08;;;9.20;99.90;;;;;;10083157;28;20037;-67
2024/02/13 09:58:09;;;;;;;4.28;1.98;;;9.30;99.90;;;;;;10101072;28;20036;-67
2024/02/13 10:03:02;;;;;;;3.83;1.63;;;9.30;99.90;;;;;;10099424;28;20092;-66
2024/02/13 10:07:52;;;;;;;6.22;1.98;;;9.40;99.90;;;;;;10097865;28;20036;-66
2024/02/13 10:12:54;;;;;;;2.53;1.85;;;9.40;99.90;;;;;;10098961;28;20091;-68
2024/02/13 10:17:45;;;;;;;3.00;1.60;;;9.40;99.90;;;;;;10100017;28;20075;-65
2024/02/13 10:22:45;;;;;;;3.85;1.70;;;9.40;99.90;;;;;;10098534;28;20060;-65
2024/02/13 10:27:36;;;;;;;4.00;1.80;;;9.40;99.90;;;;;;10087276;28;20048;-67
2024/02/13 10:32:27;;;;;;;2.45;1.60;;;9.40;99.90;;;;;;10087767;28;20051;-66
2024/02/13 10:37:19;;;;;;;3.42;1.60;;;9.50;99.90;;;;;;10085201;28;20497;-66
2024/02/13 10:42:15;;;;;;;3.75;1.83;;;9.50;99.90;;;;;;10092238;28;20589;-68
2024/02/13 10:47:10;;;;;;;2.05;1.30;;;9.60;99.90;;;;;;10087739;28;20021;-68
2024/02/13 10:52:05;;;;;;;1.80;1.10;;;9.60;99.90;;;;;;10087868;28;20132;-68
2024/02/13 10:56:58;;;;;;;2.92;1.45;;;9.70;99.90;;;;;;10090686;28;20116;-67
2024/02/13 11:01:51;;;;;;;3.97;1.55;;;9.70;99.90;;;;;;10087933;28;20018;-67
2024/02/13 11:06:42;;;;;;;1.42;1.08;;;9.80;99.90;;;;;;10084214;28;20071;-66
2024/02/13 11:11:34;;;;;;;3.67;1.40;;;9.80;99.90;;;;;;10075733;28;20064;-68
2024/02/13 11:16:24;;;;;;;4.53;1.52;;;9.90;99.90;;;;;;10094868;28;20028;-67
2024/02/13 11:21:24;;;;;;;3.65;1.30;;;9.90;99.90;;;;;;10098052;28;20027;-67
2024/02/13 11:26:18;;;;;;;1.73;1.30;;;10.00;99.90;;;;;;10091316;28;20552;-67
2024/02/13 11:31:16;;;;;;;3.40;1.48;;;10.00;99.90;;;;;;10097554;28;20036;-67
2024/02/13 11:36:12;;;;;;;3.05;1.52;;;10.00;99.90;;;;;;10096544;28;20033;-64
2024/02/13 11:41:03;;;;;;;3.97;1.45;;;10.10;99.90;;;;;;10096178;28;20128;-65
2024/02/13 11:46:00;;;;;;;2.80;1.23;;;10.10;99.90;;;;;;10098648;28;20043;-66
2024/02/13 11:50:50;;;;;;;1.75;1.02;;;10.20;99.90;;;;;;10084640;28;20131;-67
2024/02/13 11:55:43;;;;;;;2.30;1.25;;;10.20;99.90;;;;;;10092488;28;20025;-66
2024/02/13 12:00:33;;;;;;;2.20;1.30;;;10.30;99.90;;;;;;10096347;28;20061;-65
2024/02/13 12:05:24;;;;;;;1.73;1.30;;;10.40;99.90;;;;;;10093738;28;20050;-68
2024/02/13 12:10:15;;;;;;;1.75;0.98;;;10.50;99.90;;;;;;10087142;28;20045;-66
2024/02/13 12:15:10;;;;;;;2.10;1.17;;;10.80;99.90;;;;;;10088640;28;20456;-67
2024/02/13 12:20:01;;;;;;;4.47;0.95;;;11.00;99.90;;;;;;10086564;28;20028;-65
2024/02/13 12:24:51;;;;;;;2.13;0.88;;;11.10;99.90;;;;;;10093323;28;20033;-66
2024/02/13 12:29:47;;;;;;;1.13;0.80;;;11.20;99.90;;;;;;10088441;28;20617;-71
2024/02/13 12:34:38;;;;;;;1.88;1.17;;;11.20;99.90;;;;;;10088534;28;20102;-70
2024/02/13 12:39:30;;;;;;;1.40;0.85;;;11.20;99.90;;;;;;10095465;28;20025;-68
2024/02/13 12:44:21;;;;;;;2.45;0.88;;;11.20;99.90;;;;;;10095941;28;20025;-69
2024/02/13 12:49:12;;;;;;;2.22;0.80;;;11.00;99.90;;;;;;10076720;28;20021;-67
2024/02/13 12:54:06;;;;;;;1.75;0.90;;;10.90;99.90;;;;;;10085126;28;20037;-68
2024/02/13 12:58:57;;;;;;;1.00;0.50;;;10.80;99.90;;;;;;10094659;28;20020;-67
2024/02/13 13:03:48;;;;;;;1.05;0.63;;;10.80;99.90;;;;;;10094754;28;20636;-68
2024/02/13 13:08:40;;;;;;;1.42;0.75;;;10.80;99.90;;;;;;10088084;28;20016;-66
2024/02/13 13:13:32;;;;;;;2.38;0.82;;;10.80;99.90;;;;;;10091203;28;20047;-66
2024/02/13 13:18:23;;;;;;;2.47;0.90;;;10.70;99.90;;;;;;10086176;28;20069;-66
2024/02/13 13:23:15;;;;;;;2.45;0.90;;;10.70;99.90;;;;;;10094183;28;20078;-67
2024/02/13 13:28:06;;;;;;;2.88;0.90;;;10.80;99.90;;;;;;10075822;28;20049;-66
2024/02/13 13:32:58;;;;;;;5.43;2.08;;;10.80;99.90;;;;;;10089474;28;20071;-66
2024/02/13 13:37:48;;;;;;;3.55;1.52;;;10.90;99.90;;;;;;10094915;28;20021;-66
2024/02/13 13:42:46;;;;;;;2.38;1.13;;;11.30;99.90;;;;;;10096103;28;20044;-67
2024/02/13 13:47:37;;;;;;;7.35;1.73;;;11.60;99.90;;;;;;10101360;28;20130;-67
2024/02/13 13:52:27;;;;;;;1.95;1.23;;;11.70;99.90;;;;;;10100491;28;20894;-66
2024/02/13 13:57:18;;;;;;;4.20;1.90;;;11.80;99.90;;;;;;10100369;28;20056;-68
2024/02/13 14:02:09;;;;;;;0.98;0.80;;;11.50;99.90;;;;;;10100978;28;20048;-67
2024/02/13 14:06:59;;;;;;;1.80;1.33;;;11.40;99.90;;;;;;10100065;28;20037;-67
2024/02/13 14:11:51;;;;;;;4.72;1.15;;;11.50;99.90;;;;;;10099030;28;20041;-66
2024/02/13 14:16:42;;;;;;;3.03;0.75;;;11.70;99.90;;;;;;10100826;28;20498;-69
2024/02/13 14:21:33;;;;;;;1.25;0.77;;;12.10;99.90;;;;;;10100499;28;20028;-67
2024/02/13 14:26:25;;;;;;;1.20;0.60;;;12.30;99.90;;;;;;10098968;28;20045;-67
2024/02/13 14:31:17;;;;;;;1.23;0.75;;;12.30;99.90;;;;;;10099685;28;20213;-67
2024/02/13 14:36:08;;;;;;;1.95;0.82;;;12.30;99.90;;;;;;10100599;28;20032;-69
2024/02/13 14:40:58;;;;;;;2.30;0.98;;;12.20;99.90;;;;;;10099691;28;20495;-67
2024/02/13 14:45:50;;;;;;;1.48;0.95;;;12.20;99.90;;;;;;10099672;28;20512;-69
2024/02/13 14:50:42;;;;;;;2.95;1.27;;;12.10;99.90;;;;;;10110565;28;20039;-68
2024/02/13 14:55:34;;;;;;;2.17;0.90;;;11.90;99.90;;;;;;10098083;28;20051;-68
2024/02/13 15:00:26;;;;;;;1.35;0.90;;;11.80;99.90;;;;;;10097777;28;20477;-69
2024/02/13 15:05:17;;;;;;;0.55;0.43;;;11.80;99.90;;;;;;10093879;28;20025;-68
2024/02/13 15:10:11;;;;;;;4.20;1.52;;;11.80;99.90;;;;;;10098992;28;20041;-68
2024/02/13 15:15:06;;;;;;;1.60;0.90;;;11.70;99.90;;;;;;10097282;28;20031;-66
2024/02/13 15:19:59;;;;;;;2.23;0.80;;;11.70;99.90;;;;;;10095366;28;20024;-67
2024/02/13 15:24:50;;;;;;;2.33;0.90;;;11.70;99.90;;;;;;10097520;28;20028;-66
2024/02/13 15:29:42;;;;;;;4.00;2.13;;;11.60;99.90;;;;;;10097022;28;20041;-67
2024/02/13 15:34:35;;;;;;;2.92;1.23;;;11.70;99.90;;;;;;10098844;28;20021;-67
2024/02/13 15:49:45;;;;;;;1.85;1.08;;;11.70;99.90;;;;;;10097854;28;20098;-66
2024/02/13 15:54:35;;;;;;;7.57;3.97;;;11.60;99.90;;;;;;10095902;28;20442;-68
2024/02/13 15:59:28;;;;;;;2.70;1.17;;;11.60;99.90;;;;;;10096572;28;20041;-66
2024/02/13 16:04:20;;;;;;;2.03;1.20;;;11.50;99.90;;;;;;10095268;28;20045;-69
2024/02/13 16:09:12;;;;;;;1.77;1.08;;;11.60;99.90;;;;;;10092865;28;20100;-66
2024/02/13 16:14:03;;;;;;;3.47;1.52;;;11.60;99.90;;;;;;10094103;28;20076;-67
2024/02/13 16:18:53;;;;;;;1.80;1.15;;;11.60;99.90;;;;;;10096239;28;20028;-66
2024/02/13 16:23:45;;;;;;;2.38;0.77;;;11.50;99.90;;;;;;10093786;28;20059;-67
2024/02/13 16:28:39;;;;;;;3.47;1.50;;;11.50;99.90;;;;;;10091320;28;20036;-67
2024/02/13 16:33:30;;;;;;;5.32;2.25;;;11.50;99.90;;;;;;10094075;28;20403;-67
2024/02/13 16:38:20;;;;;;;4.28;1.90;;;11.50;99.90;;;;;;10095751;28;20020;-67
2024/02/13 16:43:11;;;;;;;5.53;2.53;;;11.40;99.90;;;;;;10097025;28;20024;-67
2024/02/13 16:48:03;;;;;;;4.03;2.25;;;11.40;99.90;;;;;;10095093;28;20107;-67
2024/02/13 16:52:54;;;;;;;5.03;1.55;;;11.40;99.90;;;;;;10094535;28;20418;-64
2024/02/13 16:57:46;;;;;;;6.88;2.15;;;11.40;99.90;;;;;;10078570;28;20029;-63
2024/02/13 17:02:40;;;;;;;3.22;1.55;;;11.30;99.90;;;;;;10094922;28;20060;-64
2024/02/13 17:07:31;;;;;;;5.82;2.45;;;11.30;99.90;;;;;;10091846;28;20051;-65
2024/02/13 17:12:21;;;;;;;6.05;2.10;;;11.30;99.90;;;;;;10097987;28;20490;-65
2024/02/13 17:17:13;;;;;;;4.88;1.85;;;11.30;99.90;;;;;;10098776;28;20044;-64
2024/02/13 17:22:04;;;;;;;5.68;2.60;;;11.30;99.90;;;;;;10102207;28;20021;-64
2024/02/13 17:26:54;;;;;;;6.45;2.33;;;11.20;99.90;;;;;;10102211;28;20132;-64
2024/02/13 17:31:45;;;;;;;3.67;2.00;;;11.20;99.90;;;;;;10102468;28;20525;-64
2024/02/13 17:36:35;;;;;;;8.07;2.70;;;11.20;99.90;;;;;;10102122;28;20491;-63
2024/02/13 17:41:29;;;;;;;4.70;2.17;;;11.20;99.90;;;;;;10102581;28;20040;-64
2024/02/13 17:46:20;;;;;;;5.45;2.40;;;11.20;99.90;;;;;;10100150;28;20021;-64
2024/02/13 17:51:10;;;;;;;9.32;2.60;;;11.20;99.90;;;;;;10101649;28;20119;-64
2024/02/13 17:56:01;;;;;;;11.98;4.88;;;11.20;99.90;;;;;;10099989;28;20029;-65
2024/02/13 18:00:54;;;;;;;9.52;3.95;;;11.20;99.90;;;;;;10101192;28;20082;-65
2024/02/13 18:05:44;;;;;;;8.07;3.08;;;11.10;99.90;;;;;;10102061;28;20100;-64
2024/02/13 18:10:35;;;;;;;6.05;3.50;;;11.10;99.90;;;;;;10100401;28;20410;-66
2024/02/13 18:15:27;;;;;;;8.48;2.85;;;11.10;99.90;;;;;;10099767;28;20103;-64
2024/02/13 18:20:19;;;;;;;8.02;2.45;;;11.10;99.90;;;;;;10089525;28;20407;-64
2024/02/13 18:25:10;;;;;;;7.90;2.42;;;11.10;99.90;;;;;;10081854;28;20033;-64
2024/02/13 18:30:00;;;;;;;4.97;2.25;;;11.10;99.90;;;;;;10099360;28;20033;-64
2024/02/13 18:34:53;;;;;;;6.93;2.40;;;11.10;99.90;;;;;;10099010;28;20025;-64
2024/02/13 18:39:46;;;;;;;4.18;2.05;;;11.00;99.90;;;;;;10099734;28;20017;-64
2024/02/13 18:44:37;;;;;;;6.60;2.20;;;11.00;99.90;;;;;;10099232;28;20029;-64
2024/02/13 18:49:28;;;;;;;3.42;2.20;;;11.00;99.90;;;;;;10101546;28;20529;-64
2024/02/13 18:54:19;;;;;;;5.30;2.28;;;11.00;99.90;;;;;;10098478;28;20029;-65
2024/02/13 18:59:11;;;;;;;3.22;2.10;;;10.90;99.90;;;;;;10098345;28;20025;-64
2024/02/13 19:04:02;;;;;;;6.28;2.30;;;10.90;99.90;;;;;;10100555;28;20090;-64
2024/02/13 19:08:53;;;;;;;3.67;2.53;;;10.90;99.90;;;;;;10097973;28;20471;-65
2024/02/13 19:13:44;;;;;;;4.18;2.30;;;10.90;99.90;;;;;;10097736;28;20076;-65
2024/02/13 19:18:37;;;;;;;4.30;2.67;;;10.80;99.90;;;;;;10098198;28;20055;-65
2024/02/13 19:23:27;;;;;;;10.80;3.13;;;10.80;99.90;;;;;;10097342;28;20116;-65
2024/02/13 19:28:18;;;;;;;7.05;3.30;;;10.80;99.90;;;;;;10097219;28;20130;-64
2024/02/13 19:33:09;;;;;;;8.40;2.58;;;10.70;99.90;;;;;;10097502;28;20445;-64
2024/02/13 19:38:00;;;;;;;6.20;2.92;;;10.70;99.90;;;;;;10097659;28;20021;-65
2024/02/13 19:42:51;;;;;;;5.65;3.25;;;10.70;99.90;;;;;;10095728;28;20052;-65
2024/02/13 19:47:42;;;;;;;6.10;2.53;;;10.70;99.90;;;;;;10098350;28;20043;-63
2024/02/13 19:52:35;;;;;;;5.72;3.35;;;10.70;99.90;;;;;;10078815;28;20543;-64
2024/02/13 19:57:26;;;;;;;4.97;2.92;;;10.70;99.90;;;;;;10096643;28;20021;-64
2024/02/13 20:02:20;;;;;;;6.78;4.45;;;10.60;99.90;;;;;;10098732;28;20486;-64
2024/02/13 20:07:11;;;;;;;6.65;3.83;;;10.50;99.90;;;;;;10096274;28;20025;-65
2024/02/13 20:12:03;;;;;;;5.35;3.40;;;10.50;99.90;;;;;;10097347;28;20463;-64
2024/02/13 20:16:54;;;;;;;7.38;4.88;;;10.40;99.90;;;;;;10094924;28;20025;-65
2024/02/13 20:21:44;;;;;;;8.43;4.22;;;10.50;99.90;;;;;;10088093;28;20056;-63
2024/02/13 20:26:36;;;;;;;7.82;3.80;;;10.40;99.90;;;;;;10095593;28;20056;-64
2024/02/13 20:31:26;;;;;;;9.10;4.75;;;10.50;99.90;;;;;;10094288;28;20040;-65
2024/02/13 20:36:18;;;;;;;8.30;4.28;;;10.50;99.90;;;;;;10077346;28;20036;-64
2024/02/13 20:41:09;;;;;;;7.03;4.25;;;10.50;99.90;;;;;;10096031;28;20025;-64
2024/02/13 20:46:00;;;;;;;6.95;4.05;;;10.40;99.90;;;;;;10095755;28;20585;-65
2024/02/13 20:50:51;;;;;;;7.57;5.10;;;10.40;99.90;;;;;;10078922;28;20098;-66
2024/02/13 20:55:41;;;;;;;8.70;6.40;;;10.40;99.90;;;;;;10106050;28;20490;-65
2024/02/13 21:00:34;;;;;;;12.75;5.28;;;10.30;99.90;;;;;;10099917;28;20033;-65
2024/02/13 21:05:25;;;;;;;10.13;5.35;;;10.30;99.90;;;;;;10095932;28;20017;-65
2024/02/13 21:10:16;;;;;;;11.90;6.70;;;10.30;99.90;;;;;;10106957;28;20037;-65
2024/02/13 21:15:07;;;;;;;10.52;5.68;;;10.30;99.90;;;;;;10102784;28;20530;-64
2024/02/13 21:19:59;;;;;;;12.63;6.25;;;10.30;99.90;;;;;;10100927;28;20525;-64
2024/02/13 21:24:50;;;;;;;10.35;6.53;;;10.20;99.90;;;;;;10100158;28;20494;-66
2024/02/13 21:29:40;;;;;;;10.23;6.05;;;10.20;99.90;;;;;;10101469;28;20116;-64
2024/02/13 21:34:31;;;;;;;8.75;6.45;;;10.30;99.90;;;;;;10102038;28;20430;-65
2024/02/13 21:39:22;;;;;;;12.52;6.65;;;10.10;99.90;;;;;;10096075;28;20795;-64
2024/02/13 21:44:12;;;;;;;8.85;6.00;;;10.10;99.90;;;;;;10100528;28;20086;-65
2024/02/13 21:49:03;;;;;;;12.27;6.53;;;10.00;99.90;;;;;;10101138;28;20593;-64
2024/02/13 21:53:56;;;;;;;11.43;5.70;;;10.00;99.90;;;;;;10096918;28;20072;-64
2024/02/13 21:58:46;;;;;;;9.35;5.50;;;10.00;99.90;;;;;;10101142;28;20025;-65
2024/02/13 22:03:37;;;;;;;8.73;5.18;;;10.00;99.90;;;;;;10099334;28;20036;-64
2024/02/13 22:08:28;;;;;;;12.15;7.43;;;9.90;99.90;;;;;;10094664;28;20017;-64
2024/02/13 22:13:20;;;;;;;12.48;6.55;;;9.90;99.90;;;;;;10100482;28;20469;-64
2024/02/13 22:18:13;;;;;;;13.80;6.43;;;9.90;99.90;;;;;;10100878;28;20020;-63
2024/02/13 22:23:03;;;;;;;12.40;6.28;;;9.80;99.90;;;;;;10104593;28;20055;-64
2024/02/13 22:27:54;;;;;;;12.05;5.75;;;9.80;99.90;;;;;;10100585;28;20045;-65
2024/02/13 22:32:46;;;;;;;11.52;5.68;;;9.90;99.90;;;;;;10094660;28;20033;-66
2024/02/13 22:37:37;;;;;;;9.43;5.80;;;9.80;99.90;;;;;;10099801;28;20025;-64
2024/02/13 22:42:28;;;;;;;8.90;5.75;;;9.80;99.90;;;;;;10099846;28;20032;-64
2024/02/13 22:47:19;;;;;;;11.95;8.43;;;9.80;99.90;;;;;;10099556;28;20021;-65
2024/02/13 22:52:10;;;;;;;8.88;5.72;;;9.80;99.90;;;;;;10099592;28;20035;-64
2024/02/13 22:57:01;;;;;;;7.28;5.03;;;9.70;99.90;;;;;;10099496;28;20028;-63
2024/02/13 23:01:53;;;;;;;12.48;5.43;;;9.80;99.90;;;;;;10099895;28;20036;-66
2024/02/13 23:06:44;;;;;;;8.60;5.07;;;9.80;99.90;;;;;;10093615;28;20099;-64
2024/02/13 23:11:35;;;;;;;8.77;4.65;;;9.70;99.90;;;;;;10084849;28;20471;-66
2024/02/13 23:16:25;;;;;;;5.45;4.40;;;9.60;99.90;;;;;;10070418;28;20517;-65
2024/02/13 23:21:16;;;;;;;7.30;4.15;;;9.60;99.90;;;;;;10086938;28;20404;-66
2024/02/13 23:26:07;;;;;;;8.95;4.40;;;9.70;99.90;;;;;;10086968;28;20056;-64
2024/02/13 23:30:58;;;;;;;9.48;4.57;;;9.70;99.90;;;;;;10086924;28;20127;-65
2024/02/13 23:35:49;;;;;;;9.27;4.35;;;9.60;99.90;;;;;;10082614;28;20579;-66
2024/02/13 23:40:40;;;;;;;6.85;3.60;;;9.60;99.90;;;;;;10082426;28;20033;-66
2024/02/13 23:45:30;;;;;;;6.97;4.13;;;9.60;99.90;;;;;;10094349;28;20033;-66
2024/02/13 23:50:21;;;;;;;9.13;4.90;;;9.60;99.90;;;;;;10089802;28;20032;-64
2024/02/13 23:55:13;;;;;;;8.30;5.55;;;9.50;99.90;;;;;;10096926;28;20064;-65
